Time;durP1;ratioP1;P1;durP2;ratioP2;P2;SDS_P1;SDS_P2;PMS_P1;PMS_P2;Temp;Humidity;BMP_temperature;BMP_pressure;BME280_temperature;BME280_humidity;BME280_pressure;Samples;Min_cycle;Max_cycle;Signal;HPM_P1;HPM_P2
2021/10/26 00:01:43;;;;;;;;;13.25;11.75;;;;;18.22;100.00;101634.00;5022423;28;46940;-81
2021/10/26 00:04:09;;;;;;;;;11.50;9.75;;;;;18.23;100.00;101643.72;5022299;28;45267;-81
2021/10/26 00:06:35;;;;;;;;;7.25;7.00;;;;;18.20;100.00;101630.66;5040098;28;45178;-81
2021/10/26 00:09:01;;;;;;;;;12.00;7.75;;;;;18.21;100.00;101634.97;5040165;28;45315;-82
2021/10/26 00:11:26;;;;;;;;;9.25;7.00;;;;;18.22;100.00;101639.34;5039889;28;45557;-81
2021/10/26 00:13:52;;;;;;;;;12.75;7.25;;;;;18.19;100.00;101626.28;5048058;28;45186;-82
2021/10/26 00:16:18;;;;;;;;;10.25;8.25;;;;;18.20;100.00;101615.44;5060258;28;45225;-81
2021/10/26 00:18:44;;;;;;;;;10.50;7.00;;;;;18.12;100.00;101633.13;5042025;28;45544;-81
2021/10/26 00:21:09;;;;;;;;;12.75;9.25;;;;;18.08;100.00;101629.84;5059565;28;46571;-82
2021/10/26 00:23:34;;;;;;;;;10.00;7.75;;;;;18.05;100.00;101623.91;5060195;28;45392;-81
2021/10/26 00:26:00;;;;;;;;;8.50;7.00;;;;;18.04;100.00;101636.44;5059911;28;45432;-81
2021/10/26 00:28:25;;;;;;;;;15.00;7.00;;;;;17.97;100.00;101637.06;5065875;28;45261;-81
2021/10/26 00:30:51;;;;;;;;;9.25;6.00;;;;;17.95;100.00;101635.38;5059901;28;45479;-81
2021/10/26 00:33:16;;;;;;;;;10.50;6.75;;;;;17.92;100.00;101645.50;5060492;28;45365;-81
2021/10/26 00:35:41;;;;;;;;;9.75;7.00;;;;;17.95;100.00;101647.88;5061875;28;45324;-81
2021/10/26 00:38:07;;;;;;;;;8.25;6.50;;;;;17.88;100.00;101658.25;5063802;28;45303;-82
2021/10/26 00:40:32;;;;;;;;;6.50;6.50;;;;;17.92;100.00;101654.38;5063723;28;45301;-81
2021/10/26 00:42:58;;;;;;;;;10.25;8.25;;;;;17.93;100.00;101653.41;5063821;28;45356;-81
2021/10/26 00:45:23;;;;;;;;;10.75;7.00;;;;;17.98;100.00;101654.81;5045800;28;45790;-82
2021/10/26 00:47:49;;;;;;;;;9.00;6.00;;;;;17.97;100.00;101659.31;5063449;28;45178;-81
2021/10/26 00:50:15;;;;;;;;;6.50;6.50;;;;;17.99;100.00;101656.50;5049360;28;45575;-81
2021/10/26 00:52:43;;;;;;;;;10.00;7.00;;;;;18.02;100.00;101665.13;5042870;28;45567;-81
2021/10/26 00:55:09;;;;;;;;;6.50;6.00;;;;;17.97;100.00;101661.13;5044016;28;45170;-82
2021/10/26 00:57:34;;;;;;;;;7.00;5.50;;;;;17.91;100.00;101660.69;5074950;28;45371;-82
2021/10/26 01:00:00;;;;;;;;;7.00;7.00;;;;;17.87;100.00;101658.38;5063128;28;45782;-82
2021/10/26 01:02:25;;;;;;;;;8.25;5.00;;;;;17.89;100.00;101667.13;5062972;28;45463;-82
2021/10/26 01:04:51;;;;;;;;;6.00;5.50;;;;;17.88;100.00;101666.28;5063513;28;45515;-81
2021/10/26 01:07:16;;;;;;;;;5.50;5.50;;;;;17.80;100.00;101674.09;5063426;28;45332;-81
2021/10/26 01:09:41;;;;;;;;;10.75;6.00;;;;;17.79;100.00;101669.72;5063732;28;45324;-82
2021/10/26 01:12:08;;;;;;;;;6.50;5.00;;;;;17.83;100.00;101678.34;5045690;28;45742;-81
2021/10/26 01:14:34;;;;;;;;;6.50;5.00;;;;;17.82;100.00;101666.78;5070576;28;45311;-81
2021/10/26 01:17:11;;;;;;;;;3.75;3.75;;;;;17.87;100.00;101659.22;5059375;27;45630;-81
2021/10/26 01:19:44;;;;;;;;;8.75;5.00;;;;;17.84;100.00;101675.53;5085116;27;45217;-81
2021/10/26 01:22:10;;;;;;;;;4.00;4.00;;;;;17.72;100.00;101668.53;5055242;28;45474;-81
2021/10/26 01:24:36;;;;;;;;;7.00;4.00;;;;;17.71;100.00;101674.84;5063558;28;45292;-81
2021/10/26 01:27:01;;;;;;;;;4.75;4.75;;;;;17.66;100.00;101663.72;5054249;28;45501;-81
2021/10/26 01:29:26;;;;;;;;;4.00;4.00;;;;;17.63;100.00;101669.28;5028463;28;47173;-81
2021/10/26 01:31:52;;;;;;;;;4.00;3.00;;;;;17.64;100.00;101665.66;5043428;28;45217;-81
2021/10/26 01:34:17;;;;;;;;;4.75;4.75;;;;;17.66;100.00;101676.22;5043197;28;45283;-81
2021/10/26 01:36:43;;;;;;;;;5.75;4.00;;;;;17.64;100.00;101664.81;5042721;28;45246;-81
2021/10/26 01:39:08;;;;;;;;;5.50;4.00;;;;;17.80;100.00;101668.75;5042773;28;45385;-81
2021/10/26 01:41:33;;;;;;;;;8.25;5.00;;;;;17.79;100.00;101660.84;5042667;28;45161;-81
2021/10/26 01:43:59;;;;;;;;;3.75;3.75;;;;;17.68;100.00;101669.75;5042595;28;45333;-81
2021/10/26 01:46:24;;;;;;;;;4.00;3.00;;;;;17.64;100.00;101670.16;5042418;28;45478;-81
2021/10/26 01:48:50;;;;;;;;;6.00;3.00;;;;;17.62;100.00;101670.25;5042306;28;45345;-81
2021/10/26 01:51:15;;;;;;;;;5.00;3.50;;;;;17.64;100.00;101670.16;5041771;28;45451;-81
2021/10/26 01:53:41;;;;;;;;;10.00;5.00;;;;;17.66;100.00;101678.88;5044303;28;45621;-81
2021/10/26 01:56:06;;;;;;;;;6.25;4.50;;;;;17.63;100.00;101671.13;5050425;28;45454;-81
2021/10/26 01:58:31;;;;;;;;;4.00;4.00;;;;;17.69;100.00;101674.13;5046567;28;45554;-81
2021/10/26 02:00:57;;;;;;;;;4.00;4.00;;;;;17.69;100.00;101674.13;5042046;28;45398;-81
2021/10/26 02:03:22;;;;;;;;;2.75;2.50;;;;;17.68;100.00;101675.09;5041957;28;45299;-81
2021/10/26 02:05:47;;;;;;;;;3.00;3.00;;;;;17.67;100.00;101676.06;5041762;28;45578;-81
2021/10/26 02:08:13;;;;;;;;;5.25;3.75;;;;;17.65;100.00;101669.16;5041935;28;45979;-81
2021/10/26 02:10:38;;;;;;;;;4.75;3.00;;;;;17.63;100.00;101674.63;5024381;28;45304;-81
2021/10/26 02:13:04;;;;;;;;;2.75;2.75;;;;;17.55;100.00;101669.91;5047058;28;45280;-82
2021/10/26 02:15:29;;;;;;;;;5.25;3.00;;;;;17.53;100.00;101663.81;5023980;28;45601;-82
2021/10/26 02:17:54;;;;;;;;;2.50;2.00;;;;;17.56;100.00;101668.06;5041630;28;45533;-81
2021/10/26 02:20:20;;;;;;;;;1.75;1.75;;;;;17.51;100.00;101660.44;5024054;28;45208;-80
2021/10/26 02:22:45;;;;;;;;;1.25;1.25;;;;;17.50;100.00;101664.06;5041960;28;45890;-81
2021/10/26 02:25:10;;;;;;;;;3.50;1.00;;;;;17.57;100.00;101662.59;5042305;28;45229;-81
2021/10/26 02:27:36;;;;;;;;;3.00;3.00;;;;;17.59;100.00;101668.66;5063776;28;45421;-81
2021/10/26 02:30:02;;;;;;;;;3.00;3.00;;;;;17.60;100.00;101664.16;5063656;28;45348;-81
2021/10/26 02:32:28;;;;;;;;;2.25;2.25;;;;;17.59;100.00;101659.78;5047722;28;45205;-81
2021/10/26 02:34:53;;;;;;;;;6.00;3.00;;;;;17.59;100.00;101665.97;5063517;28;45335;-82
2021/10/26 02:37:19;;;;;;;;;3.00;3.00;;;;;17.57;100.00;101667.09;5043229;28;48304;-82
2021/10/26 02:39:44;;;;;;;;;7.25;4.00;;;;;17.58;100.00;101666.94;5061872;28;45614;-81
2021/10/26 02:42:10;;;;;;;;;5.00;3.00;;;;;17.53;100.00;101669.16;5061770;28;45311;-81
2021/10/26 02:44:36;;;;;;;;;2.50;2.50;;;;;17.53;100.00;101671.84;5061837;28;45403;-81
2021/10/26 02:47:01;;;;;;;;;3.00;3.00;;;;;17.55;100.00;101680.56;5043214;28;48128;-82
2021/10/26 02:49:27;;;;;;;;;3.50;3.00;;;;;17.55;100.00;101679.72;5061452;28;45388;-81
2021/10/26 02:51:52;;;;;;;;;4.00;2.25;;;;;17.54;100.00;101675.34;5043255;28;45390;-81
2021/10/26 02:54:18;;;;;;;;;2.25;2.25;;;;;17.52;100.00;101670.13;5061581;28;45488;-82
2021/10/26 02:56:43;;;;;;;;;5.00;3.50;;;;;17.59;100.00;101668.66;5073440;28;45379;-82
2021/10/26 02:59:09;;;;;;;;;3.00;3.00;;;;;17.58;100.00;101674.13;5061317;28;45395;-82
2021/10/26 03:01:34;;;;;;;;;3.75;3.00;;;;;17.57;100.00;101670.59;5061460;28;45387;-81
2021/10/26 03:04:00;;;;;;;;;5.50;3.00;;;;;17.50;100.00;101677.41;5061249;28;45252;-81
2021/10/26 03:06:25;;;;;;;;;2.25;2.00;;;;;17.51;100.00;101679.13;5060890;28;45575;-82
2021/10/26 03:08:51;;;;;;;;;3.00;3.00;;;;;17.55;100.00;101690.41;5063374;28;45240;-81
2021/10/26 03:11:16;;;;;;;;;3.50;3.00;;;;;17.53;100.00;101692.34;5062556;28;45534;-81
2021/10/26 03:13:42;;;;;;;;;3.75;2.25;;;;;17.52;100.00;101693.31;5067178;28;45205;-81
2021/10/26 03:16:07;;;;;;;;;5.75;3.75;;;;;17.51;100.00;101689.81;5061661;28;45247;-81
2021/10/26 03:18:33;;;;;;;;;3.75;3.25;;;;;17.49;100.00;101693.56;5057146;28;45304;-82
2021/10/26 03:20:58;;;;;;;;;7.25;3.00;;;;;17.49;100.00;101694.41;5042922;28;45224;-81
2021/10/26 03:23:25;;;;;;;;;2.75;1.25;;;;;17.49;100.00;101696.22;5024284;28;45467;-81
2021/10/26 03:25:50;;;;;;;;;3.00;2.00;;;;;17.47;100.00;101698.19;5040721;28;46109;-82
2021/10/26 03:28:16;;;;;;;;;4.00;2.00;;;;;17.54;100.00;101694.91;5059308;28;45423;-81
2021/10/26 03:30:42;;;;;;;;;5.50;3.00;;;;;17.50;100.00;101695.25;5059891;28;45309;-81
2021/10/26 03:33:07;;;;;;;;;3.00;3.00;;;;;17.52;100.00;101701.34;5060637;28;45392;-81
2021/10/26 03:35:33;;;;;;;;;2.00;2.00;;;;;17.53;100.00;101703.03;5060896;28;45363;-81
2021/10/26 03:38:00;;;;;;;;;4.00;4.00;;;;;17.52;100.00;101691.50;5042579;28;45315;-81
2021/10/26 03:40:25;;;;;;;;;7.25;6.00;;;;;17.49;100.00;101699.75;5060903;28;47070;-81
2021/10/26 03:42:51;;;;;;;;;10.75;8.75;;;;;17.39;100.00;101692.63;5042565;28;46092;-81
2021/10/26 03:45:16;;;;;;;;;11.00;7.25;;;;;17.39;100.00;101698.81;5061303;28;45259;-81
2021/10/26 03:47:45;;;;;;;;;8.00;5.75;;;;;17.38;100.00;101701.63;5045250;28;45729;-81
2021/10/26 03:50:11;;;;;;;;;10.25;6.75;;;;;17.33;100.00;101701.97;5062866;28;44697;-81
2021/10/26 03:52:37;;;;;;;;;13.25;9.00;;;;;17.30;100.00;101701.38;5060250;28;45497;-82
2021/10/26 03:55:03;;;;;;;;;13.00;9.50;;;;;17.28;100.00;101704.19;5060538;28;45470;-81
2021/10/26 03:57:29;;;;;;;;;10.25;9.00;;;;;17.31;100.00;101698.56;5072070;28;45606;-81
2021/10/26 03:59:54;;;;;;;;;8.00;5.75;;;;;17.30;100.00;101712.06;5060712;28;45200;-81
2021/10/26 04:02:24;;;;;;;;;14.00;10.00;;;;;17.32;100.00;101704.75;5042105;28;45847;-81
2021/10/26 04:04:51;;;;;;;;;13.50;6.25;;;;;17.23;100.00;101703.69;5060190;28;45451;-81
2021/10/26 04:07:17;;;;;;;;;6.00;6.00;;;;;17.21;100.00;101709.13;5060080;28;45469;-81
2021/10/26 04:12:26;;;;;;;;;6.75;6.00;;;;;17.15;100.00;101706.97;5061127;28;45439;-82
2021/10/26 04:14:58;;;;;;;;;5.00;5.00;;;;;17.18;100.00;101701.41;5046136;28;48273;-81
2021/10/26 04:17:25;;;;;;;;;5.75;4.50;;;;;17.11;100.00;101713.53;5060674;28;45403;-81
2021/10/26 04:19:54;;;;;;;;;6.50;4.25;;;;;17.12;100.00;101717.03;5060611;28;45362;-81
2021/10/26 04:22:21;;;;;;;;;4.50;4.50;;;;;17.09;100.00;101710.13;5042172;28;45462;-81
2021/10/26 04:24:47;;;;;;;;;4.75;4.75;;;;;17.13;100.00;101732.06;5043023;28;48037;-81
2021/10/26 04:27:12;;;;;;;;;5.75;4.75;;;;;17.09;100.00;101727.97;5065468;28;45595;-80
2021/10/26 04:29:41;;;;;;;;;7.75;4.75;;;;;17.06;100.00;101726.38;5062938;28;45216;-80
2021/10/26 04:32:07;;;;;;;;;5.75;5.00;;;;;17.03;100.00;101717.75;5042650;28;45327;-81
2021/10/26 04:34:33;;;;;;;;;5.00;5.00;;;;;17.01;100.00;101717.91;5059488;28;46058;-81
2021/10/26 04:36:58;;;;;;;;;9.25;5.50;;;;;17.00;100.00;101721.53;5059704;28;45442;-80
2021/10/26 04:39:24;;;;;;;;;8.25;3.75;;;;;17.02;100.00;101727.63;5059738;28;45155;-81
2021/10/26 04:41:49;;;;;;;;;6.75;5.00;;;;;16.99;100.00;101732.31;5060169;28;45199;-81
2021/10/26 04:44:16;;;;;;;;;6.00;4.25;;;;;16.99;100.00;101725.19;5059730;28;45424;-81
2021/10/26 04:46:41;;;;;;;;;9.00;4.50;;;;;17.01;100.00;101728.59;5059897;28;45529;-81
2021/10/26 04:49:07;;;;;;;;;11.50;5.75;;;;;16.94;100.00;101735.34;5060569;28;45303;-82
2021/10/26 04:51:32;;;;;;;;;5.75;5.75;;;;;16.94;100.00;101734.50;5059782;28;45294;-82
2021/10/26 04:53:57;;;;;;;;;5.75;5.00;;;;;16.97;100.00;101736.94;5059616;28;45322;-82
2021/10/26 04:56:23;;;;;;;;;5.00;5.00;;;;;16.97;100.00;101737.78;5069233;28;45288;-82
2021/10/26 04:58:48;;;;;;;;;6.00;6.00;;;;;16.92;100.00;101736.47;5062748;28;45213;-82
2021/10/26 05:01:14;;;;;;;;;5.75;5.00;;;;;16.82;100.00;101750.50;5060073;28;45438;-82
2021/10/26 05:03:39;;;;;;;;;6.00;5.25;;;;;16.77;100.00;101742.00;5061926;28;46269;-82
2021/10/26 05:06:04;;;;;;;;;6.25;6.25;;;;;16.74;100.00;101742.25;5063188;28;45418;-82
2021/10/26 05:08:31;;;;;;;;;8.75;5.00;;;;;16.75;100.00;101743.13;5042067;28;45443;-82
2021/10/26 05:10:56;;;;;;;;;8.75;5.00;;;;;16.72;100.00;101738.84;5059977;28;45261;-82
2021/10/26 05:13:21;;;;;;;;;7.00;4.25;;;;;16.72;100.00;101740.66;5047420;28;46943;-82
2021/10/26 05:15:48;;;;;;;;;6.00;6.00;;;;;16.70;100.00;101748.78;5059659;28;45347;-82
2021/10/26 05:18:15;;;;;;;;;9.75;5.25;;;;;16.67;100.00;101741.00;5059317;28;45335;-82
2021/10/26 05:20:41;;;;;;;;;5.75;4.50;;;;;16.95;100.00;101741.53;5059192;28;45182;-82
2021/10/26 05:23:07;;;;;;;;;15.00;5.00;;;;;16.72;100.00;101751.34;5041193;28;47373;-82
2021/10/26 05:25:33;;;;;;;;;12.25;8.00;;;;;16.68;100.00;101744.53;5042804;28;45661;-82
2021/10/26 05:28:00;;;;;;;;;10.50;5.50;;;;;16.68;100.00;101760.53;5048793;28;45291;-82
2021/10/26 05:30:25;;;;;;;;;8.50;6.50;;;;;16.63;100.00;101768.91;5024680;28;45418;-82
2021/10/26 05:32:50;;;;;;;;;12.50;8.25;;;;;16.64;100.00;101767.09;5025201;28;46197;-82
2021/10/26 05:35:16;;;;;;;;;6.25;6.25;;;;;16.58;100.00;101756.84;5007109;28;45262;-82
2021/10/26 05:37:42;;;;;;;;;8.00;8.00;;;;;16.59;100.00;101758.53;5022283;28;45428;-82
2021/10/26 05:40:08;;;;;;;;;12.00;8.00;;;;;16.52;100.00;101773.31;5022987;28;45369;-82
2021/10/26 05:42:34;;;;;;;;;10.00;8.00;;;;;16.61;100.00;101772.63;5025835;28;45407;-81
2021/10/26 05:45:00;;;;;;;;;14.50;7.50;;;;;16.54;100.00;101776.72;5025574;28;45533;-82
2021/10/26 05:47:26;;;;;;;;;12.00;10.75;;;;;16.50;100.00;101777.91;5022667;28;45518;-82
2021/10/26 05:49:51;;;;;;;;;9.25;7.50;;;;;16.56;100.00;101772.13;5023225;28;45242;-82
2021/10/26 05:52:17;;;;;;;;;13.50;10.00;;;;;16.41;100.00;101796.31;5022032;28;46075;-82
2021/10/26 05:54:42;;;;;;;;;10.25;9.00;;;;;16.25;100.00;101787.75;5022886;28;45250;-81
2021/10/26 05:57:08;;;;;;;;;11.25;8.00;;;;;16.17;100.00;101790.16;5008170;28;45383;-82
2021/10/26 05:59:33;;;;;;;;;13.00;9.75;;;;;16.25;100.00;101794.91;5014497;28;45452;-82
2021/10/26 06:01:59;;;;;;;;;17.00;10.25;;;;;16.19;100.00;101790.03;5022972;28;45896;-82
2021/10/26 06:04:24;;;;;;;;;15.75;12.00;;;;;16.44;100.00;101798.75;5004525;28;45634;-82
2021/10/26 06:06:50;;;;;;;;;7.75;5.00;;;;;16.42;100.00;101813.16;5004307;28;45396;-82
2021/10/26 06:09:17;;;;;;;;;10.25;10.00;;;;;16.62;100.00;101814.34;5006338;28;45458;-82
2021/10/26 06:11:46;;;;;;;;;15.00;10.00;;;;;16.29;100.00;101817.72;5005372;28;47207;-82
2021/10/26 06:14:11;;;;;;;;;10.00;9.00;;;;;16.30;100.00;101817.56;5032654;28;45175;-82
2021/10/26 06:16:37;;;;;;;;;11.75;9.25;;;;;16.60;100.00;101821.56;5041981;28;45214;-82
2021/10/26 06:19:04;;;;;;;;;14.25;9.25;;;;;16.52;100.00;101824.81;5041730;28;45263;-81
2021/10/26 06:21:29;;;;;;;;;12.25;9.50;;;;;16.63;100.00;101821.38;5043186;28;45806;-82
2021/10/26 06:23:58;;;;;;;;;15.50;12.75;;;;;16.59;100.00;101822.53;5044565;28;45245;-81
2021/10/26 06:26:23;;;;;;;;;14.50;11.50;;;;;16.72;100.00;101823.34;5034580;28;45371;-81
2021/10/26 06:28:49;;;;;;;;;10.50;9.00;;;;;16.59;100.00;101818.06;5065752;28;45352;-82
2021/10/26 06:31:16;;;;;;;;;9.50;7.50;;;;;16.35;100.00;101823.44;5062974;28;45171;-81
2021/10/26 06:33:41;;;;;;;;;11.00;8.00;;;;;16.28;100.00;101819.53;5062749;28;45507;-81
2021/10/26 06:36:07;;;;;;;;;7.00;7.00;;;;;16.29;100.00;101823.91;5044383;28;45446;-81
2021/10/26 06:38:32;;;;;;;;;9.50;8.50;;;;;16.37;100.00;101847.31;5039432;28;45455;-81
2021/10/26 06:40:58;;;;;;;;;11.75;9.50;;;;;16.39;100.00;101832.03;5048244;28;45385;-81
2021/10/26 06:43:23;;;;;;;;;11.75;8.25;;;;;16.46;100.00;101842.16;5064715;28;45199;-82
2021/10/26 06:45:49;;;;;;;;;11.75;8.75;;;;;16.43;100.00;101837.03;5046665;28;45148;-82
2021/10/26 06:48:15;;;;;;;;;10.25;8.75;;;;;16.48;100.00;101837.53;5044244;28;45404;-81
2021/10/26 06:50:41;;;;;;;;;8.25;5.25;;;;;16.51;100.00;101832.94;5045051;28;46229;-82
2021/10/26 06:53:07;;;;;;;;;12.00;8.00;;;;;16.53;100.00;101839.00;5044006;28;45414;-81
2021/10/26 06:55:32;;;;;;;;;11.50;8.50;;;;;16.53;100.00;101855.00;5043850;28;45456;-81
2021/10/26 06:57:58;;;;;;;;;8.00;6.25;;;;;16.56;100.00;101860.13;5054839;28;45373;-81
2021/10/26 07:00:25;;;;;;;;;6.75;5.00;;;;;16.31;100.00;101861.94;5044586;28;45573;-82
2021/10/26 07:02:52;;;;;;;;;8.25;7.00;;;;;16.35;100.00;101850.09;5042822;28;45147;-82
2021/10/26 07:05:20;;;;;;;;;8.00;8.00;;;;;16.37;100.00;101858.84;5023539;28;45195;-81
2021/10/26 07:07:45;;;;;;;;;10.50;9.00;;;;;16.45;100.00;101871.59;5023664;28;45756;-81
2021/10/26 07:10:12;;;;;;;;;8.75;8.00;;;;;16.44;100.00;101872.56;5041633;28;45947;-81
2021/10/26 07:12:38;;;;;;;;;12.50;10.50;;;;;16.48;100.00;101867.84;5042065;28;45527;-81
2021/10/26 07:15:06;;;;;;;;;9.25;6.50;;;;;16.54;100.00;101881.56;5060550;28;45352;-82
2021/10/26 07:17:33;;;;;;;;;12.50;10.75;;;;;16.57;100.00;101884.00;5063943;28;45424;-81
2021/10/26 07:19:59;;;;;;;;;13.50;9.25;;;;;16.75;100.00;101892.50;5044101;28;47474;-82
2021/10/26 07:22:25;;;;;;;;;10.75;7.50;;;;;16.62;100.00;101897.03;5024692;28;45451;-82
2021/10/26 07:24:57;;;;;;;;;15.25;9.50;;;;;16.69;100.00;101892.94;5023501;28;45379;-82
2021/10/26 07:27:23;;;;;;;;;11.50;8.00;;;;;16.71;100.00;101894.53;5034550;28;45669;-82
2021/10/26 07:29:49;;;;;;;;;8.75;8.00;;;;;16.85;100.00;101898.81;5044135;28;48608;-81
2021/10/26 07:32:19;;;;;;;;;14.00;10.50;;;;;16.96;100.00;101892.66;5063185;28;45384;-81
2021/10/26 07:34:45;;;;;;;;;11.25;9.00;;;;;16.95;100.00;101896.28;5065497;28;45261;-81
2021/10/26 07:37:11;;;;;;;;;12.50;10.00;;;;;17.16;100.00;101914.19;5065633;28;45304;-81
2021/10/26 07:39:47;;;;;;;;;10.00;9.00;;;;;16.97;100.00;101911.22;5061951;28;45358;-81
2021/10/26 07:42:14;;;;;;;;;11.50;9.00;;;;;17.03;100.00;101923.25;5042702;28;45186;-81
2021/10/26 07:44:40;;;;;;;;;12.00;11.00;;;;;17.29;100.00;101931.97;5061859;28;45474;-81
2021/10/26 07:47:05;;;;;;;;;11.00;10.50;;;;;17.43;100.00;101931.72;5061434;28;45533;-81
2021/10/26 07:49:32;;;;;;;;;16.25;10.75;;;;;17.46;100.00;101920.81;5061388;28;45324;-81
2021/10/26 07:51:58;;;;;;;;;11.25;11.00;;;;;17.48;100.00;101924.22;5062027;28;45485;-80
2021/10/26 07:54:24;;;;;;;;;13.50;10.50;;;;;17.36;100.00;101936.69;5063205;28;45312;-81
2021/10/26 07:56:50;;;;;;;;;15.75;11.50;;;;;17.58;100.00;101938.53;5055314;28;45821;-81
2021/10/26 07:59:15;;;;;;;;;11.25;10.75;;;;;17.71;100.00;101946.50;5061213;28;46191;-81
2021/10/26 08:01:44;;;;;;;;;12.00;11.25;;;;;17.82;100.00;101950.03;5043336;28;46057;-81
2021/10/26 08:04:10;;;;;;;;;12.25;11.25;;;;;17.83;100.00;101950.88;5043103;28;45336;-81
2021/10/26 08:06:36;;;;;;;;;14.75;10.25;;;;;17.88;100.00;101948.69;5043033;28;45616;-80
2021/10/26 08:09:01;;;;;;;;;19.00;13.50;;;;;17.92;100.00;101943.00;5062618;28;45398;-82
2021/10/26 08:11:27;;;;;;;;;15.75;10.75;;;;;17.96;100.00;101938.22;5044585;28;45401;-82
2021/10/26 08:13:52;;;;;;;;;12.75;11.25;;;;;18.02;100.00;101929.75;5070182;28;45408;-81
2021/10/26 08:16:18;;;;;;;;;16.25;13.00;;;;;18.06;100.00;101949.91;5043215;28;45409;-81
2021/10/26 08:18:44;;;;;;;;;20.50;13.00;;;;;18.09;100.00;101938.13;5061554;28;45395;-81
2021/10/26 08:21:12;;;;;;;;;13.00;11.00;;;;;18.10;100.00;101934.47;5042051;28;45359;-81
2021/10/26 08:23:39;;;;;;;;;13.75;12.00;;;;;18.15;100.00;101927.78;5060761;28;45420;-81
2021/10/26 08:26:07;;;;;;;;;23.00;13.50;;;;;18.19;100.00;101929.22;5056733;28;45418;-82
2021/10/26 08:28:33;;;;;;;;;19.75;11.75;;;;;18.27;100.00;101920.59;5028724;28;46314;-82
2021/10/26 08:31:04;;;;;;;;;14.25;12.00;;;;;18.46;100.00;101926.13;5040865;28;45487;-82
2021/10/26 08:35:57;;;;;;;;;13.25;12.25;;;;;18.51;100.00;101928.41;5037753;28;45456;-82
2021/10/26 08:38:23;;;;;;;;;16.50;12.75;;;;;18.57;100.00;101936.00;5020981;28;46031;-82
2021/10/26 08:40:50;;;;;;;;;22.50;12.00;;;;;18.63;100.00;101941.69;5021127;28;45332;-81
2021/10/26 08:43:21;;;;;;;;;19.75;14.00;;;;;18.75;100.00;101931.81;5002450;28;45307;-80
2021/10/26 08:45:48;;;;;;;;;20.00;15.00;;;;;18.85;100.00;101934.53;5022276;28;45400;-83
2021/10/26 08:48:22;;;;;;;;;22.25;16.25;;;;;19.18;100.00;101949.59;5004681;28;47172;-81
2021/10/26 08:50:59;;;;;;;;;16.75;13.75;;;;;19.17;100.00;101939.88;5020965;28;45447;-82
2021/10/26 08:53:27;;;;;;;;;21.75;11.75;;;;;19.54;100.00;101942.97;5025099;28;45284;-83
2021/10/26 08:55:57;;;;;;;;;15.00;11.00;;;;;19.94;100.00;101937.69;5029260;28;45523;-82
2021/10/26 08:58:32;;;;;;;;;14.25;12.25;;;;;20.45;100.00;101940.25;5023925;28;47059;-82
2021/10/26 09:01:01;;;;;;;;;14.75;12.25;;;;;21.89;100.00;101925.81;5043990;28;45417;-82
2021/10/26 09:03:32;;;;;;;;;12.00;10.50;;;;;21.99;100.00;101923.97;5042567;28;45321;-82
2021/10/26 09:05:57;;;;;;;;;16.50;12.00;;;;;21.63;100.00;101925.63;5043220;28;45447;-82
2021/10/26 09:08:26;;;;;;;;;12.00;10.25;;;;;21.33;100.00;101934.75;5025837;28;48170;-81
2021/10/26 09:10:52;;;;;;;;;12.75;11.50;;;;;21.36;100.00;101933.63;5025951;28;45499;-82
2021/10/26 09:16:51;;;;;;;;;14.50;11.00;;;;;23.76;100.00;101932.00;5044009;28;45392;-83
2021/10/26 09:19:20;;;;;;;;;12.25;11.25;;;;;23.98;100.00;101933.28;4981540;28;45512;-84
2021/10/26 09:22:02;;;;;;;;;12.75;8.75;;;;;24.34;100.00;101922.31;4964877;28;45520;-84
2021/10/26 09:24:29;;;;;;;;;15.25;12.00;;;;;24.79;100.00;101921.88;5020193;28;45317;-81
2021/10/26 09:26:56;;;;;;;;;12.25;11.50;;;;;24.71;99.84;101922.72;5038097;28;45298;-80
2021/10/26 09:29:39;;;;;;;;;13.75;11.50;;;;;24.85;99.71;101918.53;5048985;28;46018;-82
2021/10/26 09:32:14;;;;;;;;;10.00;9.00;;;;;24.67;99.50;101913.28;5024766;28;45307;-83
2021/10/26 09:34:48;;;;;;;;;15.25;10.75;;;;;24.95;100.00;101917.38;5042639;28;45471;-83
2021/10/26 09:37:15;;;;;;;;;12.00;10.25;;;;;25.02;94.43;101912.16;5042414;28;45155;-83
2021/10/26 09:39:52;;;;;;;;;13.25;8.50;;;;;24.86;95.75;101912.09;5042888;28;46357;-83
2021/10/26 09:42:19;;;;;;;;;9.50;9.00;;;;;24.38;93.23;101904.78;5042654;28;45309;-83
2021/10/26 09:44:50;;;;;;;;;12.50;9.00;;;;;24.41;94.34;101907.97;5042963;28;45428;-83
2021/10/26 09:47:24;;;;;;;;;12.00;8.50;;;;;24.42;94.03;101906.97;5042459;28;45513;-83
2021/10/26 09:50:01;;;;;;;;;10.00;9.50;;;;;24.38;93.07;101910.19;5042806;28;45252;-83
2021/10/26 09:52:28;;;;;;;;;12.00;8.00;;;;;24.41;93.04;101902.59;5042219;28;45398;-83
2021/10/26 09:57:46;;;;;;;;;8.75;7.00;;;;;24.67;93.41;101904.34;5030699;28;45159;-83
2021/10/26 10:00:13;;;;;;;;;10.25;7.00;;;;;24.93;92.97;101908.59;5041912;28;45628;-83
2021/10/26 10:02:39;;;;;;;;;7.50;7.50;;;;;25.37;86.52;101915.47;5024296;28;45455;-83
2021/10/26 10:05:20;;;;;;;;;8.50;6.25;;;;;25.59;87.70;101921.03;5027213;28;45369;-83
2021/10/26 10:07:45;;;;;;;;;13.25;8.00;;;;;25.22;88.55;101907.25;5026193;28;45435;-83
2021/10/26 10:10:11;;;;;;;;;9.00;8.00;;;;;24.92;86.84;101923.13;5023874;28;46105;-84
2021/10/26 10:12:44;;;;;;;;;9.50;7.00;;;;;24.62;89.23;101929.13;5033678;28;45253;-83
2021/10/26 10:15:11;;;;;;;;;10.00;6.75;;;;;24.30;88.69;101934.47;5041954;28;45616;-83
2021/10/26 10:17:37;;;;;;;;;10.25;8.00;;;;;23.91;91.38;101932.25;5023799;28;45766;-83
2021/10/26 10:20:10;;;;;;;;;6.75;6.25;;;;;23.90;93.69;101930.56;5023595;28;47904;-83
2021/10/26 10:22:38;;;;;;;;;8.25;8.00;;;;;23.82;93.67;101933.22;5023753;28;45503;-83
2021/10/26 10:25:06;;;;;;;;;6.00;6.00;;;;;23.98;95.24;101929.75;5042053;28;45269;-83
2021/10/26 10:27:36;;;;;;;;;6.25;5.50;;;;;24.01;93.19;101932.97;5047014;28;45237;-83
2021/10/26 10:30:09;;;;;;;;;4.25;4.25;;;;;24.11;92.84;101932.84;5023643;28;45552;-83
2021/10/26 10:32:34;;;;;;;;;8.25;6.00;;;;;24.18;93.95;101929.34;5023921;28;46012;-83
2021/10/26 10:35:03;;;;;;;;;9.00;6.00;;;;;24.39;93.69;101931.63;5023997;28;45644;-83
2021/10/26 10:37:31;;;;;;;;;6.75;4.75;;;;;24.40;90.53;101927.06;5025960;28;45324;-82
2021/10/26 10:40:02;;;;;;;;;6.25;6.00;;;;;24.59;91.33;101930.31;5022401;28;46113;-82
2021/10/26 10:42:32;;;;;;;;;6.00;6.00;;;;;24.56;89.15;101935.22;5024029;28;45321;-82
2021/10/26 10:45:00;;;;;;;;;7.50;6.00;;;;;24.59;91.22;101934.84;5005887;28;45262;-82
2021/10/26 10:47:33;;;;;;;;;6.75;5.50;;;;;24.60;91.40;101941.94;5021864;28;45380;-82
2021/10/26 10:49:59;;;;;;;;;5.50;5.00;;;;;24.39;91.79;101939.72;5022303;28;46595;-82
2021/10/26 10:52:31;;;;;;;;;5.75;4.75;;;;;23.97;91.18;101934.31;5021821;28;45352;-82
2021/10/26 10:54:58;;;;;;;;;9.50;8.50;;;;;23.50;93.19;101944.66;5003899;28;45187;-83
2021/10/26 10:57:37;;;;;;;;;8.50;6.75;;;;;23.37;95.17;101945.06;5020734;28;45651;-83
2021/10/26 11:00:24;;;;;;;;;8.50;6.00;;;;;23.08;96.40;101948.03;5041392;28;45500;-82
2021/10/26 11:02:57;;;;;;;;;8.75;4.00;;;;;22.93;97.99;101937.97;5023066;28;45364;-82
2021/10/26 11:05:35;;;;;;;;;5.75;5.75;;;;;23.01;99.24;101938.88;5023040;28;45483;-82
2021/10/26 11:08:14;;;;;;;;;5.50;4.75;;;;;22.96;98.74;101938.47;5023140;28;45513;-82
2021/10/26 11:10:45;;;;;;;;;10.50;6.75;;;;;22.85;100.00;101936.06;5041127;28;46280;-82
2021/10/26 11:13:22;;;;;;;;;10.00;7.00;;;;;22.72;100.00;101933.69;5047257;28;45167;-81
2021/10/26 11:15:51;;;;;;;;;7.00;6.00;;;;;22.89;100.00;101934.72;5041005;28;45295;-82
2021/10/26 11:18:45;;;;;;;;;9.00;7.50;;;;;23.17;100.00;101932.78;5041166;28;45435;-82
2021/10/26 11:21:19;;;;;;;;;7.75;6.75;;;;;23.08;99.84;101939.94;5041534;28;45566;-82
2021/10/26 11:23:45;;;;;;;;;6.00;3.00;;;;;22.78;100.00;101929.56;5022023;28;45502;-82
2021/10/26 11:26:14;;;;;;;;;4.50;4.50;;;;;22.74;100.00;101930.84;5040572;28;45397;-82